Time;durP1;ratioP1;P1;durP2;ratioP2;P2;SDS_P1;SDS_P2;PMS_P1;PMS_P2;Temp;Humidity;BMP_temperature;BMP_pressure;BME280_temperature;BME280_humidity;BME280_pressure;Samples;Min_cycle;Max_cycle;Signal;HPM_P1;HPM_P2
2023/08/24 00:03:45;;;;;;;15.38;7.90;;;;;;;;;;10356193;28;20527;-62
2023/08/24 00:08:44;;;;;;;12.48;6.88;;;;;;;;;;10356254;28;20075;-63
2023/08/24 00:13:48;;;;;;;9.10;6.25;;;;;;;;;;10356181;28;20063;-63
2023/08/24 00:18:47;;;;;;;12.20;6.75;;;;;;;;;;10354693;28;20080;-61
2023/08/24 00:23:48;;;;;;;12.95;7.25;;;;;;;;;;10355386;28;20072;-61
2023/08/24 00:28:47;;;;;;;9.73;6.65;;;;;;;;;;10347997;28;20106;-62
2023/08/24 00:33:46;;;;;;;8.05;7.28;;;;;;;;;;10357927;28;20075;-63
2023/08/24 00:38:44;;;;;;;12.18;7.75;;;;;;;;;;10351559;28;20079;-62
2023/08/24 00:43:44;;;;;;;10.35;7.40;;;;;;;;;;10356858;28;20071;-62
2023/08/24 00:48:44;;;;;;;10.95;6.85;;;;;;;;;;10354484;28;20497;-62
2023/08/24 00:53:43;;;;;;;11.07;7.15;;;;;;;;;;10355022;28;20157;-62
2023/08/24 00:58:42;;;;;;;8.63;6.50;;;;;;;;;;10354569;28;20086;-62
2023/08/24 01:03:40;;;;;;;9.57;6.60;;;;;;;;;;10355095;28;20068;-61
2023/08/24 01:08:40;;;;;;;8.40;6.85;;;;;;;;;;10353245;28;20079;-62
2023/08/24 01:13:42;;;;;;;9.32;6.55;;;;;;;;;;10354504;28;20102;-62
2023/08/24 01:18:42;;;;;;;10.15;6.95;;;;;;;;;;10362189;28;20082;-63
2023/08/24 01:23:45;;;;;;;10.93;7.10;;;;;;;;;;10353498;28;20075;-63
2023/08/24 01:28:45;;;;;;;9.40;6.07;;;;;;;;;;10358598;28;20075;-63
2023/08/24 01:33:44;;;;;;;12.35;7.43;;;;;;;;;;10354209;28;20087;-64
2023/08/24 01:38:42;;;;;;;7.35;6.72;;;;;;;;;;10356963;28;20071;-62
2023/08/24 01:43:41;;;;;;;12.10;7.03;;;;;;;;;;10359401;28;20070;-62
2023/08/24 01:48:43;;;;;;;11.43;7.40;;;;;;;;;;10349422;28;20079;-62
2023/08/24 01:53:41;;;;;;;10.73;7.50;;;;;;;;;;10389496;27;20083;-62
2023/08/24 01:58:40;;;;;;;12.43;7.30;;;;;;;;;;10387364;27;20071;-63
2023/08/24 02:03:39;;;;;;;12.00;7.10;;;;;;;;;;10369044;28;20421;-61
2023/08/24 02:08:40;;;;;;;12.20;7.07;;;;;;;;;;10360642;28;20488;-63
2023/08/24 02:13:38;;;;;;;13.55;8.38;;;;;;;;;;10383374;27;20544;-63
2023/08/24 02:18:37;;;;;;;13.68;7.45;;;;;;;;;;10360005;28;20080;-62
2023/08/24 02:23:35;;;;;;;8.02;6.80;;;;;;;;;;10359997;28;20083;-62
2023/08/24 02:28:35;;;;;;;10.65;6.43;;;;;;;;;;10356844;28;20082;-63
2023/08/24 02:33:33;;;;;;;13.77;7.03;;;;;;;;;;10355350;28;20071;-62
2023/08/24 02:38:32;;;;;;;8.73;7.03;;;;;;;;;;10355465;28;20103;-62
2023/08/24 02:43:30;;;;;;;19.58;8.52;;;;;;;;;;10355305;28;20476;-62
2023/08/24 02:48:30;;;;;;;14.25;8.52;;;;;;;;;;10354048;28;20079;-62
2023/08/24 02:53:28;;;;;;;15.15;7.95;;;;;;;;;;10344435;28;20094;-62
2023/08/24 02:58:26;;;;;;;11.93;7.43;;;;;;;;;;10357871;28;20083;-63
2023/08/24 03:03:25;;;;;;;17.77;6.70;;;;;;;;;;10357442;28;20176;-63
2023/08/24 03:08:25;;;;;;;8.15;6.43;;;;;;;;;;10356417;28;20075;-63
2023/08/24 03:13:24;;;;;;;11.27;7.43;;;;;;;;;;10357408;28;20060;-62
2023/08/24 03:18:23;;;;;;;19.35;7.90;;;;;;;;;;10356247;28;20075;-62
2023/08/24 03:23:22;;;;;;;15.93;6.85;;;;;;;;;;10349872;28;20076;-61
2023/08/24 03:28:21;;;;;;;11.45;6.82;;;;;;;;;;10368116;27;20087;-62
2023/08/24 03:33:20;;;;;;;14.90;6.85;;;;;;;;;;10355559;28;20095;-63
2023/08/24 03:38:18;;;;;;;8.77;7.55;;;;;;;;;;10351750;28;20076;-63
2023/08/24 03:43:16;;;;;;;9.88;7.35;;;;;;;;;;10355686;28;20091;-63
2023/08/24 03:48:16;;;;;;;12.65;6.65;;;;;;;;;;10369246;28;20541;-62
2023/08/24 03:53:14;;;;;;;14.95;7.35;;;;;;;;;;10357995;28;20063;-62
2023/08/24 03:58:13;;;;;;;20.20;8.02;;;;;;;;;;10342049;28;20108;-63
2023/08/24 04:03:11;;;;;;;13.68;7.10;;;;;;;;;;10370838;28;20083;-65
2023/08/24 04:08:11;;;;;;;8.88;7.65;;;;;;;;;;10355446;28;20072;-62
2023/08/24 04:13:09;;;;;;;16.33;8.13;;;;;;;;;;10369950;28;20067;-62
2023/08/24 04:18:08;;;;;;;16.02;8.05;;;;;;;;;;10353133;28;20182;-62
2023/08/24 04:23:06;;;;;;;19.63;7.85;;;;;;;;;;10353274;28;20437;-62
2023/08/24 04:28:06;;;;;;;14.52;8.65;;;;;;;;;;10355090;28;20078;-62
2023/08/24 04:33:05;;;;;;;12.25;7.60;;;;;;;;;;10353639;28;20079;-62
2023/08/24 04:38:03;;;;;;;14.10;8.07;;;;;;;;;;10343225;28;20064;-61
2023/08/24 04:43:02;;;;;;;10.68;8.40;;;;;;;;;;10355018;28;20078;-63
2023/08/24 04:48:05;;;;;;;9.95;8.18;;;;;;;;;;10354528;28;20096;-63
2023/08/24 04:53:03;;;;;;;14.57;8.88;;;;;;;;;;10341093;28;20063;-63
2023/08/24 04:58:01;;;;;;;17.58;8.90;;;;;;;;;;10354404;28;20067;-61
2023/08/24 05:03:00;;;;;;;13.00;8.65;;;;;;;;;;10354478;28;20048;-62
2023/08/24 05:08:00;;;;;;;16.70;8.80;;;;;;;;;;10346249;28;20060;-62
2023/08/24 05:12:58;;;;;;;10.00;8.95;;;;;;;;;;10355885;28;20060;-62
2023/08/24 05:17:59;;;;;;;12.18;8.77;;;;;;;;;;10357125;28;20083;-63
2023/08/24 05:22:59;;;;;;;11.70;8.57;;;;;;;;;;10360718;28;20072;-63
2023/08/24 05:27:59;;;;;;;12.23;9.10;;;;;;;;;;10362142;28;20626;-62
2023/08/24 05:32:57;;;;;;;19.98;9.23;;;;;;;;;;10361813;28;20071;-63
2023/08/24 05:37:55;;;;;;;18.20;8.35;;;;;;;;;;10355624;28;20071;-62
2023/08/24 05:42:54;;;;;;;15.93;8.52;;;;;;;;;;10350149;28;20102;-62
2023/08/24 05:47:53;;;;;;;14.52;9.38;;;;;;;;;;10354736;28;20079;-60
2023/08/24 05:52:52;;;;;;;11.02;8.98;;;;;;;;;;10336297;28;20068;-62
2023/08/24 05:57:50;;;;;;;15.55;9.10;;;;;;;;;;10355347;28;20075;-62
2023/08/24 06:02:49;;;;;;;18.38;8.20;;;;;;;;;;10351811;28;20075;-61
2023/08/24 06:07:49;;;;;;;10.45;8.98;;;;;;;;;;10340776;28;20075;-61
2023/08/24 06:12:47;;;;;;;10.77;7.63;;;;;;;;;;10347088;28;20095;-62
2023/08/24 06:17:47;;;;;;;14.95;12.38;;;;;;;;;;10357214;28;20082;-62
2023/08/24 06:22:46;;;;;;;20.73;10.38;;;;;;;;;;10357179;28;20075;-63
2023/08/24 06:27:46;;;;;;;10.82;8.88;;;;;;;;;;10347338;28;20507;-63
2023/08/24 06:32:44;;;;;;;9.30;8.30;;;;;;;;;;10352145;28;20516;-63
2023/08/24 06:37:42;;;;;;;11.13;7.75;;;;;;;;;;10353187;28;20067;-62
2023/08/24 06:42:41;;;;;;;19.88;9.75;;;;;;;;;;10347524;28;20064;-63
2023/08/24 06:47:41;;;;;;;15.50;9.55;;;;;;;;;;10353553;28;20181;-63
2023/08/24 06:52:39;;;;;;;12.23;9.32;;;;;;;;;;10339920;27;20080;-63
2023/08/24 06:57:37;;;;;;;14.02;9.93;;;;;;;;;;10353025;28;20079;-62
2023/08/24 07:02:36;;;;;;;10.05;8.50;;;;;;;;;;10353151;28;20055;-62
2023/08/24 07:07:35;;;;;;;17.98;11.07;;;;;;;;;;10356099;28;20079;-62
2023/08/24 07:12:34;;;;;;;11.02;8.15;;;;;;;;;;10357911;28;20068;-61
2023/08/24 07:17:32;;;;;;;13.63;7.82;;;;;;;;;;10356523;28;20075;-62
2023/08/24 07:22:30;;;;;;;18.20;9.15;;;;;;;;;;10357388;28;20541;-62
2023/08/24 07:27:30;;;;;;;12.68;9.15;;;;;;;;;;10358314;27;20079;-62
2023/08/24 07:32:28;;;;;;;13.52;10.05;;;;;;;;;;10354526;28;20075;-62
2023/08/24 07:37:27;;;;;;;12.57;9.05;;;;;;;;;;10359601;28;20549;-63
2023/08/24 07:42:25;;;;;;;19.02;9.90;;;;;;;;;;10356154;28;20070;-62
2023/08/24 07:47:25;;;;;;;14.07;10.27;;;;;;;;;;10356402;28;20097;-62
2023/08/24 07:52:27;;;;;;;18.48;10.05;;;;;;;;;;10340587;28;20123;-63
2023/08/24 07:57:26;;;;;;;20.20;9.80;;;;;;;;;;10347073;28;20167;-62
2023/08/24 08:02:25;;;;;;;14.35;9.00;;;;;;;;;;10346715;28;20064;-62
2023/08/24 08:07:24;;;;;;;21.27;10.10;;;;;;;;;;10344575;28;20074;-62
2023/08/24 08:12:22;;;;;;;16.08;9.07;;;;;;;;;;10343823;28;20493;-62
2023/08/24 08:17:21;;;;;;;15.25;10.20;;;;;;;;;;10350114;28;20074;-63
2023/08/24 08:22:20;;;;;;;20.38;9.15;;;;;;;;;;10343868;28;20099;-62
2023/08/24 08:27:18;;;;;;;17.42;9.43;;;;;;;;;;10340742;28;20060;-62
2023/08/24 08:32:17;;;;;;;11.65;9.20;;;;;;;;;;10349707;28;20068;-62
2023/08/24 08:37:15;;;;;;;13.52;8.23;;;;;;;;;;10351112;28;20071;-62
2023/08/24 08:42:15;;;;;;;12.63;8.75;;;;;;;;;;10347709;28;20068;-62
2023/08/24 08:47:14;;;;;;;16.63;9.20;;;;;;;;;;10350361;28;20082;-62
2023/08/24 08:52:12;;;;;;;11.05;9.60;;;;;;;;;;10347252;28;20099;-62
2023/08/24 08:57:11;;;;;;;17.95;10.82;;;;;;;;;;10350274;28;20092;-62
2023/08/24 09:02:14;;;;;;;10.27;9.27;;;;;;;;;;10350946;28;20544;-62
2023/08/24 09:07:14;;;;;;;26.60;10.25;;;;;;;;;;10351956;28;20064;-62
2023/08/24 09:12:12;;;;;;;16.00;9.43;;;;;;;;;;10354821;28;20481;-62
2023/08/24 09:17:20;;;;;;;12.63;9.23;;;;;;;;;;10353748;28;20465;-63
2023/08/24 09:22:18;;;;;;;15.52;10.65;;;;;;;;;;10353788;28;20080;-63
2023/08/24 09:27:16;;;;;;;12.45;9.60;;;;;;;;;;10353759;28;20158;-63
2023/08/24 09:32:16;;;;;;;12.93;9.30;;;;;;;;;;10353356;28;20112;-63
2023/08/24 09:37:15;;;;;;;10.00;8.98;;;;;;;;;;10352507;28;20075;-61
2023/08/24 09:42:13;;;;;;;12.05;8.00;;;;;;;;;;10352921;28;20075;-64
2023/08/24 09:47:12;;;;;;;14.77;8.25;;;;;;;;;;10353069;28;20076;-63
2023/08/24 09:52:11;;;;;;;12.80;9.32;;;;;;;;;;10352295;28;20080;-62
2023/08/24 09:57:10;;;;;;;15.63;12.40;;;;;;;;;;10353074;28;20063;-62
2023/08/24 10:02:13;;;;;;;17.55;12.45;;;;;;;;;;10360117;28;20071;-62
2023/08/24 10:07:15;;;;;;;9.23;8.32;;;;;;;;;;10360758;28;20454;-62
2023/08/24 10:12:14;;;;;;;11.33;9.17;;;;;;;;;;10359809;28;20078;-62
2023/08/24 10:17:13;;;;;;;6.97;6.38;;;;;;;;;;10359856;28;20068;-63
2023/08/24 10:22:14;;;;;;;8.60;7.82;;;;;;;;;;10360302;28;20040;-63
2023/08/24 10:27:13;;;;;;;9.93;6.47;;;;;;;;;;10359315;28;20075;-61
2023/08/24 10:32:12;;;;;;;7.00;6.18;;;;;;;;;;10347301;28;20497;-62
2023/08/24 10:37:10;;;;;;;8.88;5.80;;;;;;;;;;10357443;28;20072;-62
2023/08/24 10:42:12;;;;;;;6.90;6.20;;;;;;;;;;10352730;28;20079;-63
2023/08/24 10:47:14;;;;;;;12.63;5.47;;;;;;;;;;10358655;28;20075;-63
2023/08/24 10:52:19;;;;;;;7.25;5.90;;;;;;;;;;10358992;28;20067;-63
2023/08/24 10:57:22;;;;;;;6.07;5.57;;;;;;;;;;10344390;28;20079;-62
2023/08/24 11:02:20;;;;;;;9.07;7.55;;;;;;;;;;10358368;28;20071;-62
2023/08/24 11:07:19;;;;;;;8.52;6.38;;;;;;;;;;10358041;28;20082;-62
2023/08/24 11:12:17;;;;;;;5.95;5.30;;;;;;;;;;10356919;28;20087;-62
2023/08/24 11:17:20;;;;;;;7.43;6.10;;;;;;;;;;10357535;28;20068;-62
2023/08/24 11:22:19;;;;;;;6.38;5.60;;;;;;;;;;10357272;28;20071;-62
2023/08/24 11:27:17;;;;;;;11.05;6.82;;;;;;;;;;10356715;28;20574;-62
2023/08/24 11:32:15;;;;;;;7.60;6.10;;;;;;;;;;10343145;28;20472;-63
2023/08/24 11:37:20;;;;;;;6.97;5.68;;;;;;;;;;10356853;28;20558;-62
2023/08/24 11:42:19;;;;;;;7.90;5.85;;;;;;;;;;10343624;28;20063;-62
2023/08/24 11:47:17;;;;;;;9.32;6.93;;;;;;;;;;10356255;28;20080;-61
2023/08/24 11:52:16;;;;;;;12.88;7.60;;;;;;;;;;10356555;28;20083;-62
2023/08/24 11:57:15;;;;;;;8.52;6.18;;;;;;;;;;10356300;28;21147;-62
2023/08/24 12:02:14;;;;;;;9.73;6.28;;;;;;;;;;10337218;28;20073;-62
2023/08/24 12:07:12;;;;;;;12.95;6.10;;;;;;;;;;10352841;28;20064;-63
2023/08/24 12:12:14;;;;;;;17.25;8.10;;;;;;;;;;10355870;28;20504;-63
2023/08/24 12:17:14;;;;;;;8.30;6.72;;;;;;;;;;10345971;28;20079;-63
2023/08/24 12:22:15;;;;;;;8.32;6.18;;;;;;;;;;10350505;28;20082;-63
2023/08/24 12:27:18;;;;;;;6.40;5.43;;;;;;;;;;10355251;28;20142;-63
2023/08/24 12:32:20;;;;;;;8.90;6.85;;;;;;;;;;10355210;28;20087;-64
2023/08/24 12:37:18;;;;;;;7.82;6.20;;;;;;;;;;10355602;28;20087;-62
2023/08/24 12:42:16;;;;;;;8.20;6.40;;;;;;;;;;10336377;28;20094;-63
2023/08/24 12:47:14;;;;;;;7.15;6.47;;;;;;;;;;10352962;28;20059;-62
2023/08/24 12:52:14;;;;;;;6.57;5.97;;;;;;;;;;10355092;28;20068;-61
2023/08/24 12:57:12;;;;;;;10.05;6.10;;;;;;;;;;10351753;28;20476;-62
2023/08/24 13:02:11;;;;;;;10.43;6.03;;;;;;;;;;10340798;28;20082;-62
2023/08/24 13:07:23;;;;;;;8.57;6.28;;;;;;;;;;10348552;28;20078;-63
2023/08/24 13:12:22;;;;;;;9.13;6.13;;;;;;;;;;10350379;28;20507;-63
2023/08/24 13:17:20;;;;;;;9.80;6.50;;;;;;;;;;10347872;28;20060;-63
2023/08/24 13:22:18;;;;;;;8.45;6.00;;;;;;;;;;10353162;28;20068;-62
2023/08/24 13:27:19;;;;;;;7.43;6.72;;;;;;;;;;10348056;28;20063;-63
2023/08/24 13:32:17;;;;;;;8.07;6.10;;;;;;;;;;10350212;28;20070;-63
2023/08/24 13:37:15;;;;;;;8.70;6.32;;;;;;;;;;10360080;28;20507;-63
2023/08/24 13:42:13;;;;;;;8.55;6.60;;;;;;;;;;10356470;28;20063;-62
2023/08/24 13:47:13;;;;;;;7.80;5.93;;;;;;;;;;10359675;28;20078;-63
2023/08/24 13:52:12;;;;;;;13.00;8.60;;;;;;;;;;10361646;28;20512;-61
2023/08/24 13:57:10;;;;;;;9.93;6.60;;;;;;;;;;10350052;28;20068;-63
2023/08/24 14:02:09;;;;;;;12.25;6.65;;;;;;;;;;10355076;28;20072;-64
2023/08/24 14:07:09;;;;;;;13.45;6.40;;;;;;;;;;10353104;28;20075;-63
2023/08/24 14:12:07;;;;;;;7.65;5.93;;;;;;;;;;10357091;28;20177;-62
2023/08/24 14:17:06;;;;;;;11.32;5.63;;;;;;;;;;10345257;28;20064;-64
2023/08/24 14:22:04;;;;;;;9.35;6.93;;;;;;;;;;10343198;28;20476;-62
2023/08/24 14:27:05;;;;;;;6.80;6.10;;;;;;;;;;10355653;28;20075;-63
2023/08/24 14:32:03;;;;;;;12.55;7.50;;;;;;;;;;10358992;28;20082;-64
2023/08/24 14:37:01;;;;;;;7.22;6.03;;;;;;;;;;10359486;28;20063;-64
2023/08/24 14:41:59;;;;;;;9.75;5.88;;;;;;;;;;10356571;28;20084;-65
2023/08/24 14:46:59;;;;;;;10.68;6.05;;;;;;;;;;10352245;28;20067;-64
2023/08/24 14:51:58;;;;;;;10.57;6.65;;;;;;;;;;10357188;28;20071;-64
2023/08/24 14:56:58;;;;;;;9.25;6.25;;;;;;;;;;10358739;28;20067;-64
2023/08/24 15:02:01;;;;;;;14.50;6.65;;;;;;;;;;10357422;28;20070;-64
2023/08/24 15:06:59;;;;;;;8.57;6.25;;;;;;;;;;10357536;28;20082;-65
2023/08/24 15:11:58;;;;;;;9.13;6.00;;;;;;;;;;10357544;28;20075;-64
2023/08/24 15:16:56;;;;;;;6.38;5.78;;;;;;;;;;10338442;28;20511;-64
2023/08/24 15:21:56;;;;;;;15.80;6.43;;;;;;;;;;10357416;28;20067;-63
2023/08/24 15:26:54;;;;;;;12.05;5.97;;;;;;;;;;10357996;28;20076;-62
2023/08/24 15:31:52;;;;;;;7.28;6.63;;;;;;;;;;10350634;28;20083;-62
2023/08/24 15:36:52;;;;;;;12.30;7.03;;;;;;;;;;10346298;28;20075;-63
2023/08/24 15:41:52;;;;;;;11.70;6.68;;;;;;;;;;10356074;28;20491;-63
2023/08/24 15:46:50;;;;;;;13.13;6.55;;;;;;;;;;10354591;28;20085;-63
2023/08/24 15:51:51;;;;;;;15.68;7.43;;;;;;;;;;10356178;28;20090;-64
2023/08/24 15:56:49;;;;;;;12.43;6.88;;;;;;;;;;10354508;28;20094;-64
2023/08/24 16:01:49;;;;;;;12.27;5.93;;;;;;;;;;10351458;28;20068;-63
2023/08/24 16:06:47;;;;;;;7.45;5.88;;;;;;;;;;10350788;28;20071;-64
2023/08/24 16:11:45;;;;;;;6.80;5.82;;;;;;;;;;10343945;28;20262;-62
2023/08/24 16:16:43;;;;;;;10.20;6.43;;;;;;;;;;10346092;28;20063;-63
2023/08/24 16:21:43;;;;;;;14.75;6.88;;;;;;;;;;10346975;28;20484;-63
2023/08/24 16:26:42;;;;;;;7.38;6.68;;;;;;;;;;10351745;28;20084;-63
2023/08/24 16:31:40;;;;;;;8.32;7.13;;;;;;;;;;10352898;28;20075;-62
2023/08/24 16:36:40;;;;;;;8.93;6.45;;;;;;;;;;10348074;28;20501;-63
2023/08/24 16:41:40;;;;;;;6.95;6.40;;;;;;;;;;10353781;28;20086;-63
2023/08/24 16:46:38;;;;;;;7.70;6.95;;;;;;;;;;10348175;28;20073;-63
2023/08/24 16:51:36;;;;;;;12.93;8.07;;;;;;;;;;10346765;28;20094;-63
2023/08/24 16:56:35;;;;;;;12.05;7.50;;;;;;;;;;10345161;28;20079;-62
2023/08/24 17:01:34;;;;;;;8.50;6.45;;;;;;;;;;10351282;28;20063;-63
2023/08/24 17:06:32;;;;;;;14.32;7.32;;;;;;;;;;10343040;28;20067;-62
2023/08/24 17:11:33;;;;;;;9.32;8.40;;;;;;;;;;10354069;28;20064;-62
2023/08/24 17:16:32;;;;;;;11.38;8.10;;;;;;;;;;10361434;28;20075;-63
2023/08/24 17:21:31;;;;;;;28.02;8.07;;;;;;;;;;10357259;28;20075;-62
2023/08/24 17:26:30;;;;;;;8.98;7.40;;;;;;;;;;10352998;28;20075;-63
2023/08/24 17:31:28;;;;;;;10.73;6.47;;;;;;;;;;10355895;28;20075;-64
2023/08/24 17:36:26;;;;;;;9.70;6.72;;;;;;;;;;10343015;28;20068;-63
2023/08/24 17:41:26;;;;;;;5.63;4.55;;;;;;;;;;10358251;28;20464;-64
2023/08/24 17:46:24;;;;;;;6.03;4.53;;;;;;;;;;10354324;28;20079;-62
2023/08/24 17:51:23;;;;;;;4.50;3.95;;;;;;;;;;10358362;28;20072;-63
2023/08/24 17:56:22;;;;;;;11.88;4.80;;;;;;;;;;10353208;28;20076;-63
2023/08/24 18:01:24;;;;;;;5.10;4.32;;;;;;;;;;10359668;28;20075;-64
2023/08/24 18:06:23;;;;;;;12.82;4.70;;;;;;;;;;10359787;28;20067;-63
2023/08/24 18:11:21;;;;;;;21.70;7.20;;;;;;;;;;10359557;28;20060;-63
2023/08/24 18:16:19;;;;;;;18.05;7.68;;;;;;;;;;10352630;28;20496;-63
2023/08/24 18:21:19;;;;;;;13.13;5.75;;;;;;;;;;10358299;28;20071;-63
2023/08/24 18:26:17;;;;;;;13.15;5.93;;;;;;;;;;10359785;28;20495;-63
2023/08/24 18:31:16;;;;;;;16.63;6.43;;;;;;;;;;10359314;28;20467;-64
2023/08/24 18:36:16;;;;;;;8.48;4.10;;;;;;;;;;10355216;28;20134;-64
2023/08/24 18:41:15;;;;;;;15.45;5.60;;;;;;;;;;10349791;28;20087;-63
2023/08/24 18:46:13;;;;;;;6.68;4.22;;;;;;;;;;10348206;28;20086;-64
2023/08/24 18:51:12;;;;;;;8.65;3.70;;;;;;;;;;10352696;28;20169;-63
2023/08/24 18:56:10;;;;;;;8.20;4.88;;;;;;;;;;10339954;28;20072;-64
2023/08/24 19:01:15;;;;;;;4.95;4.00;;;;;;;;;;10358082;28;20559;-64
2023/08/24 19:06:14;;;;;;;5.28;3.47;;;;;;;;;;10357199;28;20079;-65
2023/08/24 19:11:26;;;;;;;8.60;4.28;;;;;;;;;;10357587;28;20098;-64
2023/08/24 19:16:27;;;;;;;7.53;5.95;;;;;;;;;;10351350;28;20489;-64
2023/08/24 19:21:26;;;;;;;5.95;5.40;;;;;;;;;;10356802;28;20063;-64
2023/08/24 19:26:25;;;;;;;6.43;5.43;;;;;;;;;;10349072;28;20075;-65
2023/08/24 19:31:23;;;;;;;7.63;5.90;;;;;;;;;;10351437;28;20552;-65
2023/08/24 19:36:22;;;;;;;6.15;5.65;;;;;;;;;;10345814;28;20072;-65
2023/08/24 19:41:21;;;;;;;8.07;6.25;;;;;;;;;;10361646;28;20048;-66
2023/08/24 19:46:19;;;;;;;9.35;7.10;;;;;;;;;;10337672;28;20509;-65
2023/08/24 19:51:17;;;;;;;6.63;6.03;;;;;;;;;;10356310;28;20079;-65
2023/08/24 19:56:17;;;;;;;7.13;5.63;;;;;;;;;;10352006;28;20083;-65
2023/08/24 20:01:15;;;;;;;6.43;5.80;;;;;;;;;;10354034;28;20082;-66
2023/08/24 20:06:18;;;;;;;9.52;5.88;;;;;;;;;;10354868;28;20063;-65
2023/08/24 20:11:18;;;;;;;11.75;5.75;;;;;;;;;;10350100;28;20072;-65
2023/08/24 20:16:16;;;;;;;7.50;5.88;;;;;;;;;;10354770;28;20079;-65
2023/08/24 20:21:15;;;;;;;10.63;6.30;;;;;;;;;;10347263;28;20067;-64
2023/08/24 20:26:13;;;;;;;8.85;5.80;;;;;;;;;;10343147;28;20075;-64
2023/08/24 20:31:13;;;;;;;7.57;6.10;;;;;;;;;;10353831;28;20075;-65
2023/08/24 20:36:12;;;;;;;9.75;7.90;;;;;;;;;;10353978;28;20074;-64
2023/08/24 20:41:10;;;;;;;9.23;8.35;;;;;;;;;;10352692;28;20074;-65
2023/08/24 20:46:08;;;;;;;11.38;8.88;;;;;;;;;;10352485;28;20075;-66
2023/08/24 20:51:08;;;;;;;8.88;7.97;;;;;;;;;;10350787;28;20496;-65
2023/08/24 20:56:08;;;;;;;8.93;8.13;;;;;;;;;;10339736;28;20068;-65
2023/08/24 21:01:08;;;;;;;11.32;7.38;;;;;;;;;;10352227;28;20074;-65
2023/08/24 21:06:07;;;;;;;9.65;8.48;;;;;;;;;;10349295;28;20066;-65
2023/08/24 21:11:06;;;;;;;10.27;7.63;;;;;;;;;;10353365;28;20504;-65
2023/08/24 21:16:04;;;;;;;10.90;9.00;;;;;;;;;;10353368;28;20090;-65
2023/08/24 21:21:02;;;;;;;9.50;8.50;;;;;;;;;;10351455;28;20535;-65
2023/08/24 21:26:02;;;;;;;10.73;8.63;;;;;;;;;;10344673;28;20084;-65
2023/08/24 21:31:02;;;;;;;8.95;8.15;;;;;;;;;;10352200;28;20110;-65
2023/08/24 21:36:00;;;;;;;8.02;7.15;;;;;;;;;;10343087;28;20086;-65
2023/08/24 21:41:02;;;;;;;8.65;6.65;;;;;;;;;;10353059;28;20052;-65
2023/08/24 21:46:01;;;;;;;8.77;6.65;;;;;;;;;;10352099;28;20486;-64
2023/08/24 21:51:01;;;;;;;9.27;8.20;;;;;;;;;;10351409;28;20059;-64
2023/08/24 21:55:59;;;;;;;9.48;7.55;;;;;;;;;;10358135;28;20059;-64
2023/08/24 22:01:02;;;;;;;8.18;7.25;;;;;;;;;;10360047;28;20758;-65
2023/08/24 22:06:01;;;;;;;10.15;7.95;;;;;;;;;;10348512;28;20480;-64
2023/08/24 22:10:59;;;;;;;9.32;8.45;;;;;;;;;;10358559;28;20090;-64
2023/08/24 22:15:58;;;;;;;10.15;8.95;;;;;;;;;;10359558;28;20547;-65
2023/08/24 22:20:58;;;;;;;10.75;9.02;;;;;;;;;;10359376;28;20067;-65
2023/08/24 22:25:56;;;;;;;11.23;8.13;;;;;;;;;;10359257;28;20075;-65
2023/08/24 22:30:55;;;;;;;9.13;8.18;;;;;;;;;;10358689;28;20083;-65
2023/08/24 22:35:53;;;;;;;8.82;7.93;;;;;;;;;;10359488;28;20082;-65
2023/08/24 22:40:53;;;;;;;10.98;7.82;;;;;;;;;;10359022;28;20075;-65
2023/08/24 22:45:51;;;;;;;8.43;7.43;;;;;;;;;;10358225;28;20074;-65
2023/08/24 22:50:49;;;;;;;7.72;6.93;;;;;;;;;;10358942;28;20075;-65
2023/08/24 22:55:49;;;;;;;7.85;7.07;;;;;;;;;;10357245;28;20091;-65
2023/08/24 23:00:48;;;;;;;9.05;8.18;;;;;;;;;;10357035;28;20079;-65
2023/08/24 23:05:46;;;;;;;10.18;7.95;;;;;;;;;;10357230;28;20064;-66
2023/08/24 23:10:45;;;;;;;13.15;8.43;;;;;;;;;;10357833;28;20457;-64
2023/08/24 23:15:43;;;;;;;8.60;7.30;;;;;;;;;;10356146;28;20068;-64
2023/08/24 23:20:43;;;;;;;7.97;7.20;;;;;;;;;;10356830;28;20079;-65
2023/08/24 23:25:41;;;;;;;8.88;8.13;;;;;;;;;;10357284;28;20083;-65
2023/08/24 23:30:41;;;;;;;8.65;7.57;;;;;;;;;;10357198;28;20071;-63
2023/08/24 23:35:39;;;;;;;8.55;7.68;;;;;;;;;;10356938;28;20464;-65
2023/08/24 23:40:39;;;;;;;8.65;7.85;;;;;;;;;;10351578;28;20059;-65
2023/08/24 23:45:37;;;;;;;11.57;7.68;;;;;;;;;;10356156;28;20075;-66
2023/08/24 23:50:35;;;;;;;12.25;7.75;;;;;;;;;;10356150;28;20083;-66
2023/08/24 23:55:34;;;;;;;11.27;8.27;;;;;;;;;;10355906;28;20512;-65
